Time;durP1;ratioP1;P1;durP2;ratioP2;P2;SDS_P1;SDS_P2;PMS_P1;PMS_P2;Temp;Humidity;BMP_temperature;BMP_pressure;BME280_temperature;BME280_humidity;BME280_pressure;Samples;Min_cycle;Max_cycle;Signal;HPM_P1;HPM_P2
2022/08/03 00:00:25;;;;;;;10.52;2.92;;;;;;;20.95;49.85;100979.09;5012034;28;20065;-58
2022/08/03 00:02:52;;;;;;;10.23;3.53;;;;;;;20.94;49.97;100975.59;5024929;28;20041;-59
2022/08/03 00:05:20;;;;;;;4.82;3.17;;;;;;;20.94;49.65;100964.88;5010987;28;20056;-57
2022/08/03 00:07:47;;;;;;;8.48;2.60;;;;;;;20.96;49.72;100965.56;5026202;28;20510;-54
2022/08/03 00:10:15;;;;;;;6.35;2.80;;;;;;;20.96;49.70;100970.09;5022173;28;20069;-57
2022/08/03 00:12:43;;;;;;;6.40;2.72;;;;;;;20.96;49.73;100967.41;5024687;28;20064;-54
2022/08/03 00:15:10;;;;;;;7.82;3.13;;;;;;;20.96;49.72;100964.72;5015571;28;20283;-58
2022/08/03 00:17:43;;;;;;;6.35;2.60;;;;;;;20.95;49.75;100963.06;5022221;28;20111;-57
2022/08/03 00:20:20;;;;;;;7.68;2.80;;;;;;;20.93;49.83;100963.19;5023365;28;20065;-57
2022/08/03 00:22:48;;;;;;;6.82;2.88;;;;;;;20.91;50.08;100961.66;5019567;28;20146;-57
2022/08/03 00:25:15;;;;;;;11.07;2.47;;;;;;;20.89;50.67;100959.16;5011649;28;20053;-58
2022/08/03 00:27:42;;;;;;;5.18;2.67;;;;;;;20.88;50.68;100956.59;5014713;28;20056;-57
2022/08/03 00:30:10;;;;;;;6.30;2.50;;;;;;;20.87;50.42;100963.78;5016276;28;20425;-60
2022/08/03 00:32:37;;;;;;;9.82;3.10;;;;;;;20.87;51.18;100958.44;5015943;28;20122;-58
2022/08/03 00:35:11;;;;;;;6.18;2.80;;;;;;;20.86;51.40;100958.59;5010317;28;20050;-59
2022/08/03 00:37:58;;;;;;;9.20;2.47;;;;;;;20.85;51.71;100946.19;5018462;28;20205;-60
2022/08/03 00:40:25;;;;;;;6.32;2.67;;;;;;;20.84;51.50;100942.66;5014872;28;20332;-58
2022/08/03 00:42:54;;;;;;;5.90;2.83;;;;;;;20.85;51.12;100944.38;5015437;28;20046;-59
2022/08/03 00:45:26;;;;;;;6.25;2.95;;;;;;;20.87;51.63;100936.19;5016228;28;20056;-60
2022/08/03 00:47:54;;;;;;;6.15;2.75;;;;;;;20.87;51.62;100938.88;5003701;28;20533;-58
2022/08/03 00:50:22;;;;;;;7.18;2.60;;;;;;;20.88;51.47;100944.06;5024238;28;20605;-58
2022/08/03 00:52:54;;;;;;;4.22;2.72;;;;;;;20.89;51.69;100945.75;5017961;28;20053;-57
2022/08/03 00:55:21;;;;;;;5.68;2.40;;;;;;;20.88;51.60;100936.03;5014445;28;20060;-59
2022/08/03 00:57:49;;;;;;;5.68;2.70;;;;;;;20.88;51.71;100941.38;5016661;28;20088;-60
2022/08/03 01:00:24;;;;;;;7.40;2.78;;;;;;;20.88;51.62;100941.38;5019686;28;20050;-60
2022/08/03 01:02:51;;;;;;;7.13;3.10;;;;;;;20.88;51.52;100938.69;5017378;28;20065;-60
2022/08/03 01:05:21;;;;;;;5.57;2.80;;;;;;;20.88;52.43;100945.91;5010694;28;20064;-58
2022/08/03 01:08:22;;;;;;;11.65;2.95;;;;;;;20.89;52.40;100942.22;5018534;28;20129;-59
2022/08/03 01:10:53;;;;;;;4.85;2.85;;;;;;;20.88;52.00;100935.19;5026309;28;20042;-59
2022/08/03 01:13:44;;;;;;;5.75;2.70;;;;;;;20.87;52.56;100941.53;5029238;28;20803;-59
2022/08/03 01:16:35;;;;;;;7.22;2.88;;;;;;;20.86;52.55;100934.50;5016981;28;20060;-57
2022/08/03 01:19:12;;;;;;;7.95;3.38;;;;;;;20.86;52.79;100929.16;5039785;28;20053;-59
2022/08/03 01:21:47;;;;;;;6.45;2.50;;;;;;;20.86;52.60;100927.31;5018911;28;20050;-59
2022/08/03 01:24:28;;;;;;;10.45;3.17;;;;;;;20.85;52.81;100928.31;5022007;28;20053;-57
2022/08/03 01:27:20;;;;;;;9.23;2.83;;;;;;;20.83;52.95;100919.59;5008532;28;20049;-61
2022/08/03 01:30:23;;;;;;;5.13;2.83;;;;;;;20.83;52.75;100918.75;5022028;28;20053;-57
2022/08/03 01:32:59;;;;;;;7.22;2.78;;;;;;;20.84;52.72;100917.75;4966873;28;20054;-56
2022/08/03 01:35:50;;;;;;;7.33;2.53;;;;;;;20.83;52.66;100908.88;5006287;28;20065;-57
2022/08/03 01:38:32;;;;;;;10.43;3.10;;;;;;;20.82;52.75;100917.06;5003025;28;20189;-60
2022/08/03 01:41:16;;;;;;;4.68;2.78;;;;;;;20.82;52.82;100919.75;5017499;28;20084;-60
2022/08/03 01:43:47;;;;;;;5.22;2.80;;;;;;;20.82;52.56;100909.88;5021970;28;20084;-58
2022/08/03 01:46:34;;;;;;;6.00;2.88;;;;;;;20.84;52.29;100923.09;5029949;28;20057;-58
2022/08/03 01:49:02;;;;;;;9.75;2.55;;;;;;;20.85;52.64;100914.06;5021933;28;20053;-59
2022/08/03 01:51:37;;;;;;;5.88;3.08;;;;;;;20.83;52.47;100916.06;5019322;28;20065;-58
2022/08/03 01:54:25;;;;;;;6.95;2.38;;;;;;;20.84;52.26;100918.59;5018487;28;20058;-59
2022/08/03 01:56:53;;;;;;;5.30;2.72;;;;;;;20.83;52.24;100913.41;5006202;28;20058;-57
2022/08/03 01:59:20;;;;;;;4.65;2.72;;;;;;;20.83;52.53;100910.72;5023833;28;20152;-59
2022/08/03 02:01:48;;;;;;;7.10;3.25;;;;;;;20.83;52.42;100908.03;5016167;28;20379;-59
2022/08/03 02:04:37;;;;;;;4.38;2.60;;;;;;;20.85;52.23;100911.41;5021893;28;20041;-59
2022/08/03 02:07:05;;;;;;;6.78;2.60;;;;;;;20.85;52.11;100909.59;5015463;28;20076;-59
2022/08/03 02:09:33;;;;;;;10.63;3.08;;;;;;;20.84;52.31;100913.22;5015658;28;20446;-58
2022/08/03 02:12:00;;;;;;;7.63;2.72;;;;;;;20.84;52.65;100915.91;5019259;28;20056;-57
2022/08/03 02:14:28;;;;;;;3.90;2.58;;;;;;;20.85;52.76;100912.25;5029605;28;20440;-58
2022/08/03 02:16:55;;;;;;;6.45;2.97;;;;;;;20.86;52.62;100905.91;5020522;28;20053;-58
2022/08/03 02:19:25;;;;;;;3.88;2.55;;;;;;;20.87;52.34;100912.94;5015642;28;20541;-59
2022/08/03 02:21:53;;;;;;;7.10;3.25;;;;;;;20.86;52.46;100907.75;5018172;28;20045;-59
2022/08/03 02:24:28;;;;;;;4.35;2.70;;;;;;;20.86;52.51;100913.09;5007340;28;20054;-60
2022/08/03 02:26:56;;;;;;;6.22;3.20;;;;;;;20.87;52.46;100907.59;4999152;28;20582;-56
2022/08/03 02:29:25;;;;;;;6.53;3.22;;;;;;;20.88;52.38;100911.94;5028066;28;20057;-60
2022/08/03 02:32:13;;;;;;;7.60;3.47;;;;;;;20.89;52.38;100904.75;5017020;28;20184;-58
2022/08/03 02:34:44;;;;;;;5.40;3.08;;;;;;;20.88;52.07;100908.44;5023115;28;20053;-54
2022/08/03 02:37:11;;;;;;;4.32;2.60;;;;;;;20.87;52.33;100906.75;5040587;28;20053;-56
2022/08/03 02:39:39;;;;;;;5.53;2.75;;;;;;;20.87;52.48;100906.75;5041364;28;20053;-58
2022/08/03 02:42:08;;;;;;;5.05;3.50;;;;;;;20.86;52.25;100916.63;5039993;28;20064;-55
2022/08/03 02:44:38;;;;;;;5.13;2.85;;;;;;;20.85;52.76;100903.38;5030547;28;20418;-60
2022/08/03 02:47:09;;;;;;;4.38;2.95;;;;;;;20.84;52.95;100907.88;5030631;28;20624;-54
2022/08/03 02:49:37;;;;;;;5.30;3.22;;;;;;;20.83;52.61;100913.41;5029684;28;20362;-59
2022/08/03 02:52:20;;;;;;;7.00;3.60;;;;;;;20.82;52.99;100909.03;5028851;22;20050;-59
2022/08/03 02:54:51;;;;;;;8.07;3.22;;;;;;;20.81;52.81;100920.75;5008677;28;20509;-58
2022/08/03 02:57:18;;;;;;;6.18;3.45;;;;;;;20.79;52.92;100918.19;4998271;28;20062;-56
2022/08/03 02:59:46;;;;;;;5.60;3.25;;;;;;;20.80;53.15;100919.03;4999430;28;20140;-60
2022/08/03 03:02:15;;;;;;;10.50;3.03;;;;;;;20.79;52.90;100915.50;5016106;28;20061;-55
2022/08/03 03:04:43;;;;;;;9.30;3.33;;;;;;;20.77;53.00;100917.50;5011673;28;20053;-55
2022/08/03 03:07:31;;;;;;;3.72;2.55;;;;;;;20.77;52.72;100920.19;5014207;28;20052;-57
2022/08/03 03:10:11;;;;;;;5.10;3.40;;;;;;;20.74;53.22;100918.63;5010808;28;20473;-58
2022/08/03 03:12:40;;;;;;;8.73;3.40;;;;;;;20.72;53.14;100919.81;4995641;28;20045;-59
2022/08/03 03:15:07;;;;;;;7.43;3.05;;;;;;;20.71;53.05;100918.97;4998995;28;20054;-58
2022/08/03 03:17:36;;;;;;;6.03;3.10;;;;;;;20.69;53.24;100917.41;5015957;28;20054;-57
2022/08/03 03:20:05;;;;;;;5.97;3.47;;;;;;;20.66;53.62;100918.53;5015794;28;20076;-57
2022/08/03 03:22:32;;;;;;;5.65;3.42;;;;;;;20.65;53.31;100919.53;5000285;28;20054;-56
2022/08/03 03:25:00;;;;;;;6.60;3.17;;;;;;;20.63;53.30;100918.00;5001107;28;20269;-57
2022/08/03 03:27:28;;;;;;;7.32;3.08;;;;;;;20.62;53.50;100917.16;5017196;28;20058;-60
2022/08/03 03:29:56;;;;;;;5.40;3.00;;;;;;;20.60;53.88;100921.81;5013051;28;20064;-57
2022/08/03 03:32:26;;;;;;;6.82;3.13;;;;;;;20.60;53.80;100912.94;5001944;28;20065;-58
2022/08/03 03:34:54;;;;;;;5.75;3.17;;;;;;;20.59;53.68;100917.47;4991641;28;20165;-58
2022/08/03 03:37:21;;;;;;;5.85;3.38;;;;;;;20.59;53.61;100913.94;4994276;28;20121;-57
2022/08/03 03:39:48;;;;;;;4.95;2.88;;;;;;;20.59;53.70;100914.78;4976352;28;20398;-59
2022/08/03 03:42:15;;;;;;;9.50;3.03;;;;;;;20.61;53.73;100918.16;5015094;28;20053;-58
2022/08/03 03:44:43;;;;;;;6.57;3.30;;;;;;;20.61;53.66;100915.47;5000761;28;20435;-58
2022/08/03 03:47:10;;;;;;;3.67;2.70;;;;;;;20.63;53.58;100916.19;4995054;28;20420;-59
2022/08/03 03:49:39;;;;;;;10.40;3.38;;;;;;;20.64;53.45;100915.19;4992863;28;20370;-57
2022/08/03 03:52:06;;;;;;;4.85;3.05;;;;;;;20.64;53.74;100911.66;5020748;28;20061;-55
2022/08/03 03:54:41;;;;;;;8.93;3.72;;;;;;;20.64;53.64;100912.50;5015311;28;20049;-56
2022/08/03 03:57:09;;;;;;;7.80;3.10;;;;;;;20.65;53.23;100913.34;5014007;28;20069;-57
2022/08/03 03:59:40;;;;;;;5.93;3.63;;;;;;;20.67;53.44;100906.03;5012792;28;20046;-60
2022/08/03 04:02:08;;;;;;;8.10;2.95;;;;;;;20.68;53.53;100908.53;5017383;28;20068;-58
2022/08/03 04:13:08;;;;;;;5.75;3.38;;;;;;;20.74;53.58;100907.94;5003926;28;20062;-59
2022/08/03 04:15:37;;;;;;;7.50;4.18;;;;;;;20.78;53.59;100915.69;5010575;28;20046;-57
2022/08/03 04:18:05;;;;;;;5.35;3.30;;;;;;;20.80;53.19;100919.03;4996758;28;20065;-55
2022/08/03 04:20:34;;;;;;;6.90;3.25;;;;;;;20.81;53.17;100916.22;5022653;28;20061;-58
2022/08/03 04:23:01;;;;;;;7.32;3.10;;;;;;;20.84;53.20;100912.41;4992093;28;20407;-55
2022/08/03 04:25:39;;;;;;;8.77;3.53;;;;;;;20.85;52.83;100920.28;4995085;28;20058;-59
2022/08/03 04:28:06;;;;;;;5.57;3.28;;;;;;;20.88;52.89;100919.97;4998476;28;20064;-57
2022/08/03 04:30:55;;;;;;;8.75;3.58;;;;;;;20.91;52.45;100918.84;4990347;28;20058;-59
2022/08/03 04:33:25;;;;;;;7.75;3.20;;;;;;;20.93;52.68;100916.84;5002590;28;20387;-60
2022/08/03 04:35:57;;;;;;;7.82;3.55;;;;;;;20.96;52.37;100927.25;4992985;28;20065;-58
2022/08/03 04:38:36;;;;;;;7.45;3.58;;;;;;;20.99;52.12;100929.66;5005915;28;20060;-56
2022/08/03 04:41:03;;;;;;;8.80;3.30;;;;;;;21.01;52.30;100924.13;5017413;28;20057;-57
2022/08/03 04:43:32;;;;;;;8.73;2.97;;;;;;;21.02;52.49;100923.13;5021524;28;20139;-59
2022/08/03 04:46:00;;;;;;;11.70;3.40;;;;;;;21.04;52.51;100924.69;5003379;28;20061;-60
2022/08/03 04:48:27;;;;;;;10.75;3.78;;;;;;;21.08;52.40;100928.75;5016430;28;20046;-59
2022/08/03 04:50:54;;;;;;;17.63;3.78;;;;;;;21.11;52.23;100922.22;5002029;28;20050;-58
2022/08/03 04:53:22;;;;;;;6.15;3.13;;;;;;;21.14;52.07;100929.97;5005275;28;20619;-60
2022/08/03 04:55:49;;;;;;;7.72;3.42;;;;;;;21.17;52.03;100927.81;5014016;28;20418;-58
2022/08/03 04:58:16;;;;;;;5.68;2.90;;;;;;;21.22;51.80;100925.53;5018985;28;20080;-59
2022/08/03 05:00:44;;;;;;;11.00;3.58;;;;;;;21.26;51.82;100927.91;5016380;28;20065;-59
2022/08/03 05:03:11;;;;;;;9.30;3.47;;;;;;;21.28;51.45;100929.44;5002821;28;20485;-59
2022/08/03 05:05:54;;;;;;;9.55;3.47;;;;;;;21.32;51.68;100930.00;5016139;28;20088;-61
2022/08/03 05:08:37;;;;;;;7.72;3.20;;;;;;;21.34;51.50;100933.34;5017427;28;20054;-59
2022/08/03 05:11:14;;;;;;;5.47;2.90;;;;;;;21.39;50.96;100931.06;5017334;28;20064;-59
2022/08/03 05:13:43;;;;;;;7.78;2.90;;;;;;;21.43;51.25;100936.00;5013372;28;20050;-59
2022/08/03 05:16:11;;;;;;;8.82;3.30;;;;;;;21.46;50.96;100929.47;5007609;28;20054;-58
2022/08/03 05:18:38;;;;;;;7.53;3.53;;;;;;;21.51;50.67;100935.19;5013359;28;20049;-56
2022/08/03 05:21:05;;;;;;;7.32;3.15;;;;;;;21.54;50.72;100937.59;5024167;28;20430;-58
2022/08/03 05:23:32;;;;;;;8.45;3.50;;;;;;;21.60;50.55;100938.78;5018992;28;20050;-56
2022/08/03 05:26:00;;;;;;;10.43;3.80;;;;;;;21.63;50.44;100928.63;4997590;28;20558;-58
2022/08/03 05:28:27;;;;;;;6.18;3.33;;;;;;;21.68;50.28;100937.03;5020509;28;20056;-58
2022/08/03 05:30:54;;;;;;;6.40;3.08;;;;;;;21.75;50.22;100934.59;5007861;28;20510;-57
2022/08/03 05:33:21;;;;;;;5.68;2.90;;;;;;;21.83;49.77;100937.31;5022495;28;20058;-58
2022/08/03 05:35:48;;;;;;;5.95;2.72;;;;;;;21.92;49.54;100939.06;5000328;28;20391;-57
2022/08/03 05:38:30;;;;;;;7.05;2.95;;;;;;;22.01;49.57;100939.94;5014633;28;20060;-57
2022/08/03 05:41:02;;;;;;;6.10;2.83;;;;;;;22.09;48.83;100941.84;5017308;28;20602;-58
2022/08/03 05:43:51;;;;;;;8.02;2.92;;;;;;;22.16;48.97;100943.78;5015916;28;20735;-60
2022/08/03 05:46:19;;;;;;;9.65;3.72;;;;;;;22.24;48.86;100951.03;5015961;28;20042;-63
2022/08/03 05:48:46;;;;;;;4.38;3.00;;;;;;;22.29;48.64;100945.19;5011728;28;20054;-57
2022/08/03 05:51:13;;;;;;;6.57;3.00;;;;;;;;;;5018801;28;20086;-58
2022/08/03 05:53:41;;;;;;;8.43;3.13;;;;;;;22.46;48.19;100947.78;5020256;28;20057;-58
2022/08/03 05:56:10;;;;;;;12.40;3.08;;;;;;;22.53;47.84;100953.38;5013159;28;20124;-59
2022/08/03 05:58:47;;;;;;;7.40;3.20;;;;;;;22.62;47.50;100949.75;5020566;28;20041;-59
2022/08/03 06:01:15;;;;;;;6.50;2.90;;;;;;;22.73;47.60;100949.44;5016907;28;20057;-59
2022/08/03 06:03:44;;;;;;;12.25;3.28;;;;;;;22.81;47.36;100950.47;5014767;28;20090;-58
2022/08/03 06:06:11;;;;;;;8.07;2.90;;;;;;;22.90;47.12;100953.06;5017754;28;20144;-58
2022/08/03 06:08:39;;;;;;;16.40;3.75;;;;;;;22.97;46.97;100950.59;5011553;28;20046;-57
2022/08/03 06:11:07;;;;;;;9.25;3.17;;;;;;;23.07;46.70;100953.13;5020979;28;20061;-56
2022/08/03 06:17:21;;;;;;;9.38;3.08;;;;;;;23.25;46.08;100949.31;5014298;28;20037;-59
2022/08/03 06:19:51;;;;;;;7.82;3.20;;;;;;;23.31;46.22;100945.09;5011801;28;20081;-59
2022/08/03 06:22:19;;;;;;;13.18;3.30;;;;;;;23.41;45.61;100950.31;5020304;28;20050;-59
2022/08/03 06:24:47;;;;;;;8.45;3.03;;;;;;;23.50;44.02;100946.63;5010790;28;20068;-54
2022/08/03 06:27:19;;;;;;;10.75;3.40;;;;;;;23.63;44.62;100946.97;5018528;28;20064;-59
2022/08/03 06:30:03;;;;;;;6.95;2.90;;;;;;;23.71;43.40;100951.56;5005422;28;20443;-56
2022/08/03 06:32:30;;;;;;;15.40;3.63;;;;;;;23.77;42.21;100952.72;5021189;28;20061;-58
2022/08/03 06:34:57;;;;;;;15.07;4.43;;;;;;;23.81;42.30;100951.38;5011604;28;20445;-58
2022/08/03 06:37:25;;;;;;;12.10;2.35;;;;;;;23.96;42.45;100947.88;5019207;28;20049;-57
2022/08/03 06:39:53;;;;;;;10.52;2.50;;;;;;;24.07;42.29;100954.72;5005485;28;20838;-58
2022/08/03 06:42:20;;;;;;;8.43;2.67;;;;;;;24.14;41.77;100950.34;5017108;28;20069;-57
2022/08/03 06:44:48;;;;;;;7.25;2.50;;;;;;;24.24;41.58;100951.00;5015911;28;20054;-58
2022/08/03 06:47:16;;;;;;;6.28;2.55;;;;;;;24.34;41.23;100958.03;5019181;28;20068;-57
2022/08/03 06:49:43;;;;;;;7.05;2.33;;;;;;;24.45;41.39;100946.94;5016917;28;20050;-56
2022/08/03 06:52:30;;;;;;;5.30;2.17;;;;;;;24.58;40.96;100951.78;5017138;28;20061;-58
2022/08/03 06:55:05;;;;;;;9.85;2.72;;;;;;;24.62;40.66;100953.94;5016472;28;20057;-58
2022/08/03 06:57:32;;;;;;;7.00;3.05;;;;;;;24.75;40.39;100950.69;5010663;28;20046;-58
2022/08/03 07:00:01;;;;;;;6.15;2.63;;;;;;;24.88;40.20;100940.19;5016627;28;20062;-57
2022/08/03 07:02:38;;;;;;;5.10;2.10;;;;;;;24.96;39.37;100948.25;5016216;28;20525;-58
2022/08/03 07:05:06;;;;;;;8.05;2.55;;;;;;;25.07;38.85;100949.69;5012194;28;20409;-57
2022/08/03 07:07:34;;;;;;;8.90;2.15;;;;;;;25.23;39.02;100948.81;5016564;28;20525;-58
2022/08/03 07:10:01;;;;;;;5.70;2.30;;;;;;;25.32;38.84;100945.03;5013331;28;20050;-58
2022/08/03 07:12:29;;;;;;;4.85;1.85;;;;;;;25.30;38.41;100946.22;5019782;28;20050;-55
2022/08/03 07:14:57;;;;;;;5.15;2.13;;;;;;;25.38;37.85;100941.63;5013848;28;20065;-57
2022/08/03 07:17:29;;;;;;;10.07;2.22;;;;;;;25.54;37.43;100943.38;5007766;28;20057;-57
2022/08/03 07:19:57;;;;;;;15.93;2.65;;;;;;;25.64;37.64;100946.66;5017383;28;20547;-57
2022/08/03 07:22:24;;;;;;;8.65;1.95;;;;;;;25.83;37.50;100948.03;5011770;28;20510;-57
2022/08/03 07:24:51;;;;;;;10.73;2.38;;;;;;;25.91;38.12;100949.81;5008132;28;20088;-58
2022/08/03 07:27:18;;;;;;;4.22;2.08;;;;;;;25.97;37.31;100959.88;5013968;28;20056;-57
2022/08/03 07:29:45;;;;;;;6.22;2.22;;;;;;;26.00;37.34;100954.13;5010092;28;20430;-58
2022/08/03 07:32:12;;;;;;;7.25;2.10;;;;;;;26.13;36.50;100948.09;5017369;28;20065;-57
2022/08/03 07:34:40;;;;;;;8.48;1.73;;;;;;;26.03;36.81;100956.47;5012779;28;20073;-57
2022/08/03 07:37:07;;;;;;;3.95;1.42;;;;;;;26.14;36.88;100949.75;5018364;28;20046;-57
2022/08/03 07:39:34;;;;;;;8.98;1.85;;;;;;;26.13;36.53;100946.22;5012448;28;20060;-57
2022/08/03 07:42:02;;;;;;;4.45;2.05;;;;;;;26.25;36.40;100955.56;4997018;28;20060;-58
2022/08/03 07:44:29;;;;;;;4.70;2.00;;;;;;;26.31;36.57;100951.28;4992314;28;20376;-58
2022/08/03 07:46:56;;;;;;;5.70;1.85;;;;;;;26.46;36.56;100946.75;5011673;28;20046;-56
2022/08/03 07:49:24;;;;;;;7.45;2.90;;;;;;;26.64;36.62;100953.63;5014922;28;20081;-58
2022/08/03 07:54:37;;;;;;;5.22;2.03;;;;;;;26.97;35.44;100948.63;5015733;28;20061;-57
2022/08/03 07:57:04;;;;;;;5.30;1.90;;;;;;;27.01;35.23;100956.16;5012316;28;20054;-53
2022/08/03 07:59:34;;;;;;;11.30;2.15;;;;;;;27.15;35.25;100953.66;4999082;28;20411;-55
2022/08/03 08:02:21;;;;;;;5.07;1.88;;;;;;;27.16;35.22;100956.19;5022193;28;20148;-57
2022/08/03 08:04:48;;;;;;;3.92;1.88;;;;;;;27.22;34.98;100951.88;5012202;28;20057;-58
2022/08/03 08:07:15;;;;;;;6.07;1.67;;;;;;;27.25;34.67;100952.31;5015145;28;20034;-57
2022/08/03 08:09:44;;;;;;;5.95;1.83;;;;;;;27.33;34.75;100955.91;5012969;28;20053;-58
2022/08/03 08:12:11;;;;;;;7.63;2.13;;;;;;;27.42;34.50;100954.75;5016550;28;20050;-58
2022/08/03 08:14:44;;;;;;;6.57;1.85;;;;;;;27.51;34.19;100943.66;5014163;28;20054;-58
2022/08/03 08:17:12;;;;;;;3.22;1.58;;;;;;;27.64;34.16;100945.63;5009064;28;20507;-58
2022/08/03 08:19:39;;;;;;;4.32;1.80;;;;;;;27.74;33.84;100959.69;5017855;28;20422;-57
2022/08/03 08:22:18;;;;;;;5.88;1.50;;;;;;;27.68;34.02;100948.78;5016992;28;20061;-57
2022/08/03 08:24:54;;;;;;;3.95;1.40;;;;;;;27.79;34.11;100955.56;5007558;28;20059;-56
2022/08/03 08:27:21;;;;;;;4.65;1.42;;;;;;;27.91;33.66;100948.56;5014722;28;20505;-58
2022/08/03 08:29:49;;;;;;;3.33;1.40;;;;;;;27.91;33.73;100951.28;5008163;28;20050;-57
2022/08/03 08:32:22;;;;;;;2.97;1.50;;;;;;;28.10;32.97;100960.59;5018307;28;20053;-61
2022/08/03 08:34:49;;;;;;;6.90;1.73;;;;;;;28.10;33.04;100949.75;5009006;28;20530;-56
2022/08/03 08:37:17;;;;;;;4.80;1.30;;;;;;;28.23;33.32;100947.13;5019064;28;20075;-57
2022/08/03 08:39:44;;;;;;;2.50;1.88;;;;;;;28.36;32.82;100959.97;5012196;28;20098;-60
2022/08/03 08:42:11;;;;;;;4.25;1.45;;;;;;;28.42;32.05;100951.91;5014432;28;20058;-56
2022/08/03 08:44:38;;;;;;;8.13;1.63;;;;;;;28.41;32.23;100952.91;5008200;28;20083;-58
2022/08/03 08:47:07;;;;;;;2.63;1.27;;;;;;;28.49;32.02;100954.63;5015509;28;20060;-58
2022/08/03 08:49:35;;;;;;;3.28;1.65;;;;;;;28.61;31.79;100953.03;4996293;28;20136;-58
2022/08/03 08:52:04;;;;;;;3.00;1.73;;;;;;;28.64;31.59;100958.06;5028485;23;20466;-59
2022/08/03 08:54:55;;;;;;;6.38;1.52;;;;;;;28.67;31.36;100960.34;5064714;28;20057;-59
2022/08/03 08:57:30;;;;;;;7.63;1.60;;;;;;;28.75;31.54;100954.75;5071323;28;20041;-60
2022/08/03 09:00:13;;;;;;;3.95;1.48;;;;;;;28.83;31.18;100953.75;5060171;28;20464;-59
2022/08/03 09:02:44;;;;;;;4.20;1.60;;;;;;;28.79;31.19;100959.78;5066153;28;20049;-61
2022/08/03 09:05:12;;;;;;;5.20;1.30;;;;;;;28.88;31.05;100956.69;5073360;28;21095;-61
2022/08/03 09:07:40;;;;;;;2.42;1.30;;;;;;;28.96;31.05;100950.31;5072864;28;20048;-61
2022/08/03 09:10:09;;;;;;;2.40;1.33;;;;;;;29.00;31.14;100955.13;5071388;28;20104;-60
2022/08/03 09:12:44;;;;;;;6.55;1.90;;;;;;;29.15;30.92;100945.97;5057463;28;20052;-60
2022/08/03 09:15:31;;;;;;;4.63;1.50;;;;;;;29.27;29.97;100947.06;5075795;28;20056;-61
2022/08/03 09:18:00;;;;;;;3.08;1.52;;;;;;;29.26;30.19;100945.38;5075454;28;20048;-61
2022/08/03 09:20:32;;;;;;;1.77;1.30;;;;;;;29.38;30.03;100942.91;5074023;28;20044;-60
2022/08/03 09:23:07;;;;;;;3.67;1.40;;;;;;;29.45;29.94;100932.88;5066956;28;20461;-60
2022/08/03 09:25:57;;;;;;;3.47;1.38;;;;;;;29.65;29.90;100931.06;5067964;28;20055;-60
2022/08/03 09:28:33;;;;;;;2.47;1.30;;;;;;;29.83;29.41;100935.03;5085089;28;20326;-61
2022/08/03 09:31:29;;;;;;;3.88;1.63;;;;;;;29.79;29.50;100933.78;5073627;28;20056;-60
2022/08/03 09:33:59;;;;;;;5.15;1.73;;;;;;;29.77;29.19;100936.72;5077342;28;20049;-61
2022/08/03 09:36:36;;;;;;;4.53;1.80;;;;;;;29.78;29.61;100932.94;5074543;28;20063;-61
2022/08/03 09:39:09;;;;;;;3.00;1.42;;;;;;;29.71;29.40;100938.34;5073498;28;20060;-60
2022/08/03 09:41:38;;;;;;;8.52;1.50;;;;;;;29.63;29.63;100938.59;5086844;28;20078;-61
2022/08/03 09:44:05;;;;;;;3.55;1.65;;;;;;;29.61;29.40;100937.09;5081879;28;20131;-60
2022/08/03 09:46:49;;;;;;;3.83;1.65;;;;;;;29.81;29.61;100928.97;5077550;28;20044;-61
2022/08/03 09:49:17;;;;;;;6.53;1.25;;;;;;;30.03;29.00;100933.13;5084868;28;20377;-61
2022/08/03 09:51:44;;;;;;;4.10;1.58;;;;;;;30.22;29.46;100928.75;5085102;28;20512;-59
2022/08/03 09:54:31;;;;;;;5.38;1.73;;;;;;;30.24;28.88;100932.91;5077627;28;20060;-59
2022/08/03 09:56:59;;;;;;;3.70;1.30;;;;;;;30.44;29.40;100930.16;5074000;28;20049;-62
2022/08/03 09:59:28;;;;;;;4.47;1.63;;;;;;;30.60;28.17;100942.41;5078901;28;20479;-60
2022/08/03 10:01:56;;;;;;;1.75;1.27;;;;;;;30.53;28.34;100933.44;5067123;28;20084;-61
2022/08/03 10:04:24;;;;;;;2.15;1.48;;;;;;;30.55;28.29;100925.94;5079359;28;20055;-61
2022/08/03 10:07:06;;;;;;;2.78;1.25;;;;;;;30.68;28.28;100931.31;5085683;28;20032;-59
2022/08/03 10:09:34;;;;;;;3.80;1.42;;;;;;;30.74;27.80;100919.59;5067295;28;20063;-58
2022/08/03 10:12:11;;;;;;;2.83;1.30;;;;;;;30.79;27.79;100923.56;5073307;28;20396;-61
2022/08/03 10:14:40;;;;;;;4.47;1.27;;;;;;;30.88;27.60;100912.22;5075635;28;20048;-61
2022/08/03 10:17:10;;;;;;;3.85;1.30;;;;;;;31.04;27.75;100918.22;5081236;28;20048;-61
2022/08/03 10:19:37;;;;;;;1.95;1.17;;;;;;;31.10;27.63;100911.91;5077498;28;20048;-61
2022/08/03 10:22:26;;;;;;;3.65;1.38;;;;;;;31.13;27.37;100912.28;5079996;28;20060;-60
2022/08/03 10:25:06;;;;;;;3.25;1.40;;;;;;;31.19;27.25;100905.97;5058899;28;20058;-61
2022/08/03 10:27:36;;;;;;;3.13;1.60;;;;;;;31.34;27.75;100904.84;5083111;28;20045;-62
2022/08/03 10:30:08;;;;;;;4.57;1.35;;;;;;;31.58;27.16;100909.50;5075601;28;20044;-58
2022/08/03 10:32:49;;;;;;;3.95;1.40;;;;;;;31.69;26.80;100905.19;5080655;28;20097;-61
2022/08/03 10:35:19;;;;;;;5.85;1.45;;;;;;;31.75;26.73;100904.34;5075218;28;20187;-62
2022/08/03 10:38:01;;;;;;;4.45;1.40;;;;;;;31.47;26.97;100891.16;5062910;28;20053;-61
2022/08/03 10:40:30;;;;;;;4.78;1.45;;;;;;;31.60;27.23;100904.66;5071915;28;20508;-61
2022/08/03 10:43:21;;;;;;;2.08;1.20;;;;;;;31.67;26.93;100894.56;5072854;28;20056;-62
2022/08/03 10:45:49;;;;;;;7.63;1.55;;;;;;;31.74;26.90;100897.19;5074416;28;20048;-62
2022/08/03 10:48:17;;;;;;;2.72;1.38;;;;;;;31.91;27.25;100892.88;5068168;28;20536;-61
2022/08/03 10:50:46;;;;;;;3.53;1.33;;;;;;;31.78;26.54;100890.25;5083001;28;20056;-62
2022/08/03 10:53:13;;;;;;;5.68;1.27;;;;;;;31.84;26.26;100894.00;5075056;28;20345;-59
2022/08/03 10:58:37;;;;;;;7.50;2.08;;;;;;;31.86;26.34;100881.84;5058565;28;20055;-60
2022/08/03 11:01:49;;;;;;;4.00;1.60;;;;;;;32.14;26.35;100883.22;5082908;28;20063;-61
2022/08/03 11:04:28;;;;;;;2.55;1.35;;;;;;;32.46;25.82;100882.03;5059848;28;20048;-60
2022/08/03 11:07:21;;;;;;;2.97;1.52;;;;;;;32.67;24.73;100885.34;5072235;28;20421;-56
2022/08/03 11:09:51;;;;;;;2.92;1.60;;;;;;;32.63;24.91;100892.31;5064181;28;20056;-59
2022/08/03 11:12:23;;;;;;;2.85;1.70;;;;;;;32.69;24.99;100888.66;5083554;28;20056;-57
2022/08/03 11:15:09;;;;;;;6.45;1.55;;;;;;;32.85;25.39;100881.75;5057507;28;20412;-60
2022/08/03 11:17:37;;;;;;;4.70;1.58;;;;;;;33.10;25.10;100867.97;5079253;28;20048;-61
2022/08/03 11:20:52;;;;;;;2.80;1.40;;;;;;;33.41;24.33;100869.56;5082582;28;20052;-61
2022/08/03 11:23:46;;;;;;;3.55;2.03;;;;;;;33.44;24.81;100874.59;5053808;28;20049;-60
2022/08/03 11:26:33;;;;;;;1.83;1.40;;;;;;;33.41;24.32;100870.41;5075693;28;20051;-61
2022/08/03 11:29:26;;;;;;;3.05;1.50;;;;;;;33.24;24.46;100864.81;5072022;28;20055;-60
2022/08/03 11:31:57;;;;;;;3.75;1.77;;;;;;;33.13;25.03;100871.06;5075332;28;20077;-63
2022/08/03 11:34:24;;;;;;;5.75;1.45;;;;;;;33.38;24.87;100872.78;5064628;28;20140;-61
2022/08/03 11:37:17;;;;;;;4.88;1.73;;;;;;;33.16;24.46;100870.63;5071475;28;20048;-61
2022/08/03 11:39:46;;;;;;;1.98;1.77;;;;;;;33.31;24.53;100869.34;5071836;28;20056;-60
2022/08/03 11:42:22;;;;;;;2.08;1.35;;;;;;;33.60;24.51;100870.38;5078712;28;20118;-61
2022/08/03 11:44:50;;;;;;;6.47;2.08;;;;;;;33.77;24.51;100868.56;5071173;28;20495;-61
2022/08/03 11:47:19;;;;;;;5.45;1.58;;;;;;;33.76;24.62;100873.19;5063004;28;20055;-57
2022/08/03 11:49:47;;;;;;;5.22;1.38;;;;;;;33.85;23.83;100870.09;5071665;28;20417;-61
2022/08/03 11:52:15;;;;;;;2.15;1.85;;;;;;;34.04;23.87;100865.38;5082457;28;20374;-61
2022/08/03 11:54:43;;;;;;;3.50;1.73;;;;;;;34.23;23.53;100861.44;5076917;28;20496;-60
2022/08/03 11:57:10;;;;;;;2.38;1.35;;;;;;;34.38;23.54;100858.16;5080973;28;20101;-61
2022/08/03 11:59:37;;;;;;;3.17;1.40;;;;;;;34.53;23.44;100854.94;5077000;28;20041;-61
2022/08/03 12:02:11;;;;;;;1.98;1.60;;;;;;;34.79;23.58;100850.78;5076394;28;20048;-60
2022/08/03 12:05:01;;;;;;;2.83;1.40;;;;;;;35.09;23.14;100858.75;5079883;28;20056;-59